createdAt,value
2019-03-08T00:02:15.921Z,22.50
2019-03-08T00:04:44.503Z,22.50
2019-03-08T00:07:13.082Z,22.50
2019-03-08T00:09:41.665Z,22.50
2019-03-08T00:12:10.736Z,22.50
2019-03-08T00:14:39.003Z,22.50
2019-03-08T00:17:07.624Z,22.50
2019-03-08T00:19:36.315Z,22.50
2019-03-08T00:22:04.976Z,22.50
2019-03-08T00:24:33.307Z,22.50
2019-03-08T00:27:01.855Z,22.50
2019-03-08T00:29:30.192Z,22.50
2019-03-08T00:31:58.459Z,22.50
2019-03-08T00:34:26.824Z,22.50
2019-03-08T00:36:55.159Z,22.40
2019-03-08T00:39:23.430Z,22.40
2019-03-08T00:41:52.171Z,22.50
2019-03-08T00:44:20.540Z,22.50
2019-03-08T00:46:48.901Z,22.50
2019-03-08T00:49:17.199Z,22.40
2019-03-08T00:51:45.534Z,22.50
2019-03-08T00:54:13.830Z,22.50
2019-03-08T00:56:42.158Z,22.40
2019-03-08T00:59:10.435Z,22.50
2019-03-08T01:01:39.076Z,22.40
2019-03-08T01:04:07.771Z,22.50
2019-03-08T01:06:36.027Z,22.40
2019-03-08T01:09:06.910Z,22.40
2019-03-08T01:11:35.451Z,22.40
2019-03-08T01:14:03.838Z,22.40
2019-03-08T01:16:32.091Z,22.40
2019-03-08T01:19:00.818Z,22.40
2019-03-08T01:21:29.491Z,22.40
2019-03-08T01:23:58.075Z,22.40
2019-03-08T01:26:26.706Z,22.40
2019-03-08T01:28:54.987Z,22.40
2019-03-08T01:31:23.535Z,22.40
2019-03-08T01:33:51.866Z,22.40
2019-03-08T01:36:20.122Z,22.40
2019-03-08T01:38:48.399Z,22.40
2019-03-08T01:41:16.940Z,22.40
2019-03-08T01:43:45.255Z,22.40
2019-03-08T01:46:13.595Z,22.40
2019-03-08T01:48:42.167Z,22.40
2019-03-08T01:51:10.478Z,22.40
2019-03-08T01:53:38.746Z,22.40
2019-03-08T01:56:07.604Z,22.40
2019-03-08T01:58:36.016Z,22.40
2019-03-08T02:01:04.427Z,22.40
2019-03-08T02:03:32.971Z,22.40
2019-03-08T02:06:01.249Z,22.40
2019-03-08T02:08:29.916Z,22.40
2019-03-08T02:10:58.832Z,22.40
2019-03-08T02:13:27.158Z,22.40
2019-03-08T02:15:55.428Z,22.40
2019-03-08T02:18:23.762Z,22.40
2019-03-08T02:20:52.366Z,22.40
2019-03-08T02:23:20.943Z,22.40
2019-03-08T02:25:49.704Z,22.30
2019-03-08T02:28:17.978Z,22.30
2019-03-08T02:30:46.311Z,22.30
2019-03-08T02:33:14.652Z,22.30
2019-03-08T02:35:43.225Z,22.30
2019-03-08T02:38:11.911Z,22.30
2019-03-08T02:40:40.558Z,22.30
2019-03-08T02:43:11.131Z,22.30
2019-03-08T02:45:39.475Z,22.40
2019-03-08T02:48:07.736Z,22.40
2019-03-08T02:50:36.197Z,22.30
2019-03-08T02:53:04.547Z,22.30
2019-03-08T02:55:33.291Z,22.40
2019-03-08T02:58:01.546Z,22.30
2019-03-08T03:00:32.999Z,22.30
2019-03-08T03:03:01.369Z,22.30
2019-03-08T03:05:29.646Z,22.30
2019-03-08T03:07:57.967Z,22.30
2019-03-08T03:10:26.241Z,22.30
2019-03-08T03:12:54.498Z,22.30
2019-03-08T03:15:22.765Z,22.30
2019-03-08T03:17:51.102Z,22.30
2019-03-08T03:20:19.367Z,22.30
2019-03-08T03:22:47.622Z,22.30
2019-03-08T03:25:16.257Z,22.30
2019-03-08T03:27:44.516Z,22.30
2019-03-08T03:30:17.184Z,22.30
2019-03-08T03:32:45.542Z,22.30
2019-03-08T03:35:13.866Z,22.30
2019-03-08T03:37:42.126Z,22.30
2019-03-08T03:40:17.336Z,22.30
2019-03-08T03:42:45.878Z,22.30
2019-03-08T03:45:19.049Z,22.30
2019-03-08T03:47:47.571Z,22.30
2019-03-08T03:50:15.902Z,22.30
2019-03-08T03:52:44.160Z,22.30
2019-03-08T03:55:16.651Z,22.30
2019-03-08T03:57:45.266Z,22.30
2019-03-08T04:00:23.529Z,22.30
2019-03-08T04:02:52.059Z,22.30
2019-03-08T04:05:20.325Z,22.30
2019-03-08T04:07:48.661Z,22.30
2019-03-08T04:10:17.962Z,22.30
2019-03-08T04:12:46.296Z,22.30
2019-03-08T04:15:16.855Z,22.30
2019-03-08T04:17:45.399Z,22.30
2019-03-08T04:20:15.467Z,22.30
2019-03-08T04:22:44.045Z,22.30
2019-03-08T04:25:13.495Z,22.30
2019-03-08T04:27:41.948Z,22.30
2019-03-08T04:30:13.361Z,22.30
2019-03-08T04:32:41.627Z,22.30
2019-03-08T04:35:09.885Z,22.30
2019-03-08T04:37:38.215Z,22.30
2019-03-08T04:40:08.969Z,22.30
2019-03-08T04:42:37.238Z,22.30
2019-03-08T04:45:10.570Z,22.30
2019-03-08T04:47:38.849Z,22.30
2019-03-08T04:50:10.132Z,22.30
2019-03-08T04:52:38.402Z,22.20
2019-03-08T04:55:12.138Z,22.20
2019-03-08T04:57:40.406Z,22.20
2019-03-08T05:00:11.984Z,22.20
2019-03-08T05:02:40.622Z,22.20
2019-03-08T05:05:08.879Z,22.20
2019-03-08T05:07:37.221Z,22.20
2019-03-08T05:10:08.779Z,22.20
2019-03-08T05:12:37.457Z,22.20
2019-03-08T05:15:07.121Z,22.20
2019-03-08T05:17:35.459Z,22.20
2019-03-08T05:20:05.457Z,22.20
2019-03-08T05:22:33.802Z,22.20
2019-03-08T05:25:02.063Z,22.20
2019-03-08T05:27:30.806Z,22.30
2019-03-08T05:29:59.066Z,22.20
2019-03-08T05:32:27.332Z,22.20
2019-03-08T05:34:55.673Z,22.20
2019-03-08T05:37:23.952Z,22.20
2019-03-08T05:39:52.277Z,22.30
2019-03-08T05:42:21.129Z,22.30
2019-03-08T05:44:49.382Z,22.30
2019-03-08T05:47:17.654Z,22.30
2019-03-08T05:49:45.907Z,22.40
2019-03-08T05:52:14.172Z,22.40
2019-03-08T05:54:42.433Z,22.40
2019-03-08T05:57:10.786Z,22.40
2019-03-08T05:59:39.409Z,22.40
2019-03-08T06:02:07.963Z,22.40
2019-03-08T06:04:36.302Z,22.40
2019-03-08T06:07:04.574Z,22.40
2019-03-08T06:09:32.858Z,22.40
2019-03-08T06:12:01.482Z,22.40
2019-03-08T06:14:30.013Z,22.40
2019-03-08T06:16:58.551Z,22.30
2019-03-08T06:19:26.877Z,22.30
2019-03-08T06:21:55.149Z,22.40
2019-03-08T06:24:23.708Z,22.40
2019-03-08T06:26:52.051Z,22.40
2019-03-08T06:29:20.669Z,22.40
2019-03-08T06:31:48.930Z,22.40
2019-03-08T06:34:17.309Z,22.40
2019-03-08T06:36:45.561Z,22.40
2019-03-08T06:39:13.826Z,22.50
2019-03-08T06:41:42.471Z,22.50
2019-03-08T06:44:10.810Z,22.50
2019-03-08T06:46:39.546Z,22.40
2019-03-08T06:49:07.825Z,22.50
2019-03-08T06:51:36.082Z,22.50
2019-03-08T06:54:04.659Z,22.50
2019-03-08T06:56:32.985Z,22.50
2019-03-08T06:59:05.626Z,22.50
2019-03-08T07:01:34.330Z,22.50
2019-03-08T07:04:02.615Z,22.50
2019-03-08T07:06:31.262Z,22.50
2019-03-08T07:08:59.855Z,22.50
2019-03-08T07:11:28.667Z,22.50
2019-03-08T07:13:57.006Z,22.50
2019-03-08T07:16:25.642Z,22.50
2019-03-08T07:18:53.913Z,22.50
2019-03-08T07:21:23.802Z,22.60
2019-03-08T07:23:59.585Z,22.60
2019-03-08T07:26:48.118Z,22.60
2019-03-08T07:29:33.006Z,22.70
2019-03-08T07:32:02.897Z,22.70
2019-03-08T07:34:38.671Z,22.70
2019-03-08T07:37:26.638Z,22.80
2019-03-08T07:40:02.863Z,22.90
2019-03-08T07:42:49.197Z,22.90
2019-03-08T07:45:19.388Z,23.00
2019-03-08T07:47:55.750Z,23.00
2019-03-08T07:50:43.818Z,23.10
2019-03-08T07:53:32.086Z,23.20
2019-03-08T07:56:10.670Z,23.20
2019-03-08T07:58:58.467Z,23.20
2019-03-08T08:01:46.369Z,23.20
2019-03-08T08:04:33.238Z,23.20
2019-03-08T08:07:09.146Z,23.30
2019-03-08T08:09:55.319Z,23.30
2019-03-08T08:12:28.625Z,23.30
2019-03-08T08:15:07.638Z,23.30
2019-03-08T08:17:37.543Z,23.30
2019-03-08T08:20:16.270Z,23.30
2019-03-08T08:22:42.462Z,23.20
2019-03-08T08:25:18.384Z,23.20
2019-03-08T08:27:57.478Z,23.20
2019-03-08T08:30:43.815Z,23.20
2019-03-08T08:33:30.203Z,23.20
2019-03-08T08:36:03.139Z,23.20
2019-03-08T08:38:33.058Z,23.20
2019-03-08T08:41:19.434Z,23.20
2019-03-08T08:43:49.344Z,23.10
2019-03-08T08:46:35.401Z,23.10
2019-03-08T08:49:11.414Z,23.10
2019-03-08T08:51:44.341Z,23.10
2019-03-08T08:54:14.245Z,23.20
2019-03-08T08:56:46.797Z,23.10
2019-03-08T08:59:32.511Z,23.20
2019-03-08T09:02:18.946Z,23.10
2019-03-08T09:04:57.671Z,23.10
2019-03-08T09:07:36.968Z,23.20
2019-03-08T09:10:16.538Z,23.20
2019-03-08T09:13:01.321Z,23.20
2019-03-08T09:15:36.663Z,23.20
2019-03-08T09:18:06.643Z,23.20
2019-03-08T09:20:52.782Z,23.20
2019-03-08T09:23:25.941Z,23.30
2019-03-08T09:25:58.610Z,23.30
2019-03-08T09:28:37.506Z,23.30
2019-03-08T09:31:07.498Z,23.30
2019-03-08T09:33:43.229Z,23.40
2019-03-08T09:36:18.900Z,23.40
2019-03-08T09:39:04.147Z,23.40
2019-03-08T09:41:39.952Z,23.40
2019-03-08T09:44:18.731Z,23.40
2019-03-08T09:46:57.516Z,23.40
2019-03-08T09:49:27.752Z,23.40
2019-03-08T09:52:14.166Z,23.40
2019-03-08T09:54:44.078Z,23.40
2019-03-08T09:57:20.146Z,23.30
2019-03-08T09:59:53.226Z,23.30
2019-03-08T10:02:28.859Z,23.30
2019-03-08T10:05:01.798Z,23.40
2019-03-08T10:07:40.406Z,23.30
2019-03-08T10:10:27.842Z,23.40
2019-03-08T10:13:06.190Z,23.40
2019-03-08T10:15:36.176Z,23.40
2019-03-08T10:18:06.651Z,23.30
2019-03-08T10:20:39.526Z,23.30
2019-03-08T10:23:09.426Z,23.40
2019-03-08T10:25:42.490Z,23.30
2019-03-08T10:28:20.944Z,23.30
2019-03-08T10:31:07.156Z,23.40
2019-03-08T10:33:46.034Z,23.30
2019-03-08T10:36:08.714Z,23.30
2019-03-08T10:38:53.965Z,23.30
2019-03-08T10:41:26.875Z,23.30
2019-03-08T10:44:08.845Z,23.40
2019-03-08T10:46:43.156Z,23.40
2019-03-08T10:49:16.118Z,23.40
2019-03-08T10:51:52.014Z,23.40
2019-03-08T10:54:30.666Z,23.40
2019-03-08T10:57:03.773Z,23.40
2019-03-08T10:59:39.661Z,23.40
2019-03-08T11:02:26.179Z,23.40
2019-03-08T11:05:02.727Z,23.40
2019-03-08T11:07:35.891Z,23.40
2019-03-08T11:10:19.530Z,23.40
2019-03-08T11:12:49.441Z,23.40
2019-03-08T11:15:24.372Z,23.40
2019-03-08T11:17:51.202Z,23.40
2019-03-08T11:20:21.542Z,23.40
2019-03-08T11:23:03.525Z,23.40
2019-03-08T11:25:36.847Z,23.40
2019-03-08T11:28:07.061Z,23.50
2019-03-08T11:30:39.686Z,23.50
2019-03-08T11:33:24.263Z,23.50
2019-03-08T11:35:53.595Z,23.50
2019-03-08T11:38:23.566Z,23.50
2019-03-08T11:40:56.835Z,23.40
2019-03-08T11:43:26.794Z,23.50
2019-03-08T11:45:56.706Z,23.50
2019-03-08T11:48:41.600Z,23.40
2019-03-08T11:51:17.606Z,23.40
2019-03-08T11:53:56.704Z,23.50
2019-03-08T11:56:32.563Z,23.50
2019-03-08T11:59:02.459Z,23.50
2019-03-08T12:01:47.954Z,23.50
2019-03-08T12:04:19.569Z,23.50
2019-03-08T12:06:52.506Z,23.50
2019-03-08T12:09:25.398Z,23.60
2019-03-08T12:11:58.457Z,23.60
2019-03-08T12:14:34.539Z,23.60
2019-03-08T12:17:20.960Z,23.60
2019-03-08T12:19:53.915Z,23.60
2019-03-08T12:22:23.828Z,23.60
2019-03-08T12:25:10.213Z,23.60
2019-03-08T12:27:46.423Z,23.60
2019-03-08T12:30:28.812Z,23.60
2019-03-08T12:32:59.045Z,23.60
2019-03-08T12:35:40.846Z,23.60
2019-03-08T12:38:16.946Z,23.60
2019-03-08T12:40:47.135Z,23.60
2019-03-08T12:43:20.004Z,23.60
2019-03-08T12:45:58.638Z,23.60
2019-03-08T12:48:28.619Z,23.60
2019-03-08T12:51:16.887Z,23.60
2019-03-08T12:53:46.797Z,23.60
2019-03-08T12:56:25.546Z,23.60
2019-03-08T12:58:58.715Z,23.60
2019-03-08T13:01:46.627Z,23.60
2019-03-08T13:04:16.542Z,23.60
2019-03-08T13:06:46.434Z,23.60
2019-03-08T13:09:34.237Z,23.60
2019-03-08T13:12:02.513Z,23.60
2019-03-08T13:14:30.848Z,23.60
2019-03-08T13:16:59.108Z,23.60
2019-03-08T13:19:27.763Z,23.60
2019-03-08T13:21:56.393Z,23.60
2019-03-08T13:24:24.740Z,23.60
2019-03-08T13:26:52.997Z,23.70
2019-03-08T13:29:21.264Z,23.70
2019-03-08T13:31:49.847Z,23.60
2019-03-08T13:34:18.441Z,23.60
2019-03-08T13:36:46.971Z,23.60
2019-03-08T13:39:15.243Z,23.60
2019-03-08T13:41:43.503Z,23.60
2019-03-08T13:44:11.778Z,23.60
2019-03-08T13:46:40.114Z,23.60
2019-03-08T13:49:08.739Z,23.60
2019-03-08T13:51:37.936Z,23.60
2019-03-08T13:54:06.313Z,23.60
2019-03-08T13:56:34.567Z,23.60
2019-03-08T13:59:02.854Z,23.60
2019-03-08T14:01:31.451Z,23.60
2019-03-08T14:04:00.130Z,23.60
2019-03-08T14:06:28.758Z,23.60
2019-03-08T14:08:57.013Z,23.60
2019-03-08T14:11:25.298Z,23.60
2019-03-08T14:13:53.589Z,23.60
2019-03-08T14:16:21.920Z,23.60
2019-03-08T14:18:50.183Z,23.70
2019-03-08T14:21:18.733Z,23.60
2019-03-08T14:23:47.280Z,23.60
2019-03-08T14:26:15.566Z,23.60
2019-03-08T14:28:43.911Z,23.60
2019-03-08T14:31:16.946Z,23.60
2019-03-08T14:33:45.220Z,23.60
2019-03-08T14:36:13.488Z,23.70
2019-03-08T14:38:41.766Z,23.70
2019-03-08T14:41:30.627Z,23.70
2019-03-08T14:43:59.710Z,23.70
2019-03-08T14:46:35.978Z,23.60
2019-03-08T14:49:04.249Z,23.70
2019-03-08T14:51:32.582Z,23.60
2019-03-08T14:54:00.879Z,23.60
2019-03-08T14:56:31.778Z,23.60
2019-03-08T14:58:59.138Z,23.70
2019-03-08T15:01:27.391Z,23.70
2019-03-08T15:03:56.618Z,23.70
2019-03-08T15:06:28.042Z,23.70
2019-03-08T15:08:56.458Z,23.70
2019-03-08T15:11:27.128Z,23.70
2019-03-08T15:13:58.024Z,23.70
2019-03-08T15:16:25.711Z,23.70
2019-03-08T15:18:53.986Z,23.70
2019-03-08T15:21:22.591Z,23.70
2019-03-08T15:23:54.320Z,23.70
2019-03-08T15:26:20.847Z,23.70
2019-03-08T15:28:49.684Z,23.70
2019-03-08T15:31:18.074Z,23.70
2019-03-08T15:33:46.429Z,23.70
2019-03-08T15:36:14.686Z,23.70
2019-03-08T15:38:43.325Z,23.80
2019-03-08T15:41:11.585Z,23.80
2019-03-08T15:43:39.853Z,23.70
2019-03-08T15:46:08.142Z,23.70
2019-03-08T15:48:36.407Z,23.70
2019-03-08T15:51:04.667Z,23.70
2019-03-08T15:53:34.703Z,23.70
2019-03-08T15:56:02.969Z,23.70
2019-03-08T15:58:31.574Z,23.70
2019-03-08T16:00:59.834Z,23.70
2019-03-08T16:03:30.023Z,23.70
2019-03-08T16:05:58.398Z,23.70
2019-03-08T16:08:26.670Z,23.70
2019-03-08T16:10:54.946Z,23.70
2019-03-08T16:13:23.210Z,23.70
2019-03-08T16:15:51.475Z,23.70
2019-03-08T16:18:19.728Z,23.70
2019-03-08T16:20:47.998Z,23.70
2019-03-08T16:23:16.255Z,23.70
2019-03-08T16:25:47.587Z,23.70
2019-03-08T16:28:15.223Z,23.70
2019-03-08T16:30:48.961Z,23.70
2019-03-08T16:33:40.066Z,23.70
2019-03-08T16:36:10.673Z,23.70
2019-03-08T16:38:56.738Z,23.70
2019-03-08T16:41:29.233Z,23.70
2019-03-08T16:44:08.657Z,23.70
2019-03-08T16:46:41.987Z,23.70
2019-03-08T16:49:14.647Z,23.60
2019-03-08T16:51:52.605Z,23.60
2019-03-08T16:54:34.949Z,23.60
2019-03-08T16:57:04.838Z,23.60
2019-03-08T16:59:50.935Z,23.70
2019-03-08T17:02:20.843Z,23.60
2019-03-08T17:05:00.738Z,23.60
2019-03-08T17:07:47.539Z,23.60
2019-03-08T17:10:29.414Z,23.60
2019-03-08T17:13:05.299Z,23.60
2019-03-08T17:15:51.450Z,23.60
2019-03-08T17:18:33.890Z,23.70
2019-03-08T17:21:03.806Z,23.60
2019-03-08T17:23:33.780Z,23.60
2019-03-08T17:26:03.754Z,23.70
2019-03-08T17:28:46.360Z,23.70
2019-03-08T17:31:28.242Z,23.70
2019-03-08T17:34:04.509Z,23.70
2019-03-08T17:36:43.866Z,23.80
2019-03-08T17:39:13.766Z,23.80
2019-03-08T17:41:43.677Z,23.80
2019-03-08T17:44:30.175Z,23.80
2019-03-08T17:47:03.109Z,23.80
2019-03-08T17:49:39.041Z,23.80
2019-03-08T17:52:11.886Z,23.90
2019-03-08T17:54:54.171Z,23.90
2019-03-08T17:57:24.144Z,23.90
2019-03-08T18:00:00.010Z,23.90
2019-03-08T18:02:41.861Z,23.90
2019-03-08T18:05:11.752Z,23.90
2019-03-08T18:07:59.909Z,23.90
2019-03-08T18:10:45.104Z,24.00
2019-03-08T18:13:15.370Z,24.00
2019-03-08T18:15:45.335Z,24.00
2019-03-08T18:18:27.490Z,24.00
2019-03-08T18:20:57.395Z,24.00
2019-03-08T18:23:33.467Z,24.00
2019-03-08T18:26:15.641Z,24.00
2019-03-08T18:28:54.345Z,24.00
2019-03-08T18:31:29.946Z,24.00
2019-03-08T18:33:59.862Z,24.10
2019-03-08T18:36:29.762Z,24.10
2019-03-08T18:39:05.723Z,24.10
2019-03-08T18:41:44.386Z,24.10
2019-03-08T18:44:16.986Z,24.10
2019-03-08T18:46:53.027Z,24.10
2019-03-08T18:49:38.072Z,24.10
2019-03-08T18:52:20.092Z,24.10
2019-03-08T18:55:08.298Z,24.10
2019-03-08T18:57:47.281Z,24.10
2019-03-08T19:00:26.502Z,24.10
2019-03-08T19:03:12.874Z,24.10
2019-03-08T19:05:45.593Z,24.10
2019-03-08T19:08:18.954Z,24.10
2019-03-08T19:10:48.929Z,24.10
2019-03-08T19:13:24.863Z,24.10
2019-03-08T19:16:00.850Z,24.10
2019-03-08T19:18:34.086Z,24.10
2019-03-08T19:21:13.134Z,24.10
2019-03-08T19:23:46.306Z,24.20
2019-03-08T19:26:16.530Z,24.20
2019-03-08T19:28:46.445Z,24.20
2019-03-08T19:31:16.636Z,24.20
2019-03-08T19:33:58.745Z,24.20
2019-03-08T19:36:32.085Z,24.20
2019-03-08T19:39:01.995Z,24.20
2019-03-08T19:41:34.802Z,24.20
2019-03-08T19:44:10.625Z,24.20
2019-03-08T19:46:53.053Z,24.20
2019-03-08T19:49:26.204Z,24.20
2019-03-08T19:51:56.181Z,24.20
2019-03-08T19:54:26.452Z,24.20
2019-03-08T19:56:59.470Z,24.20
2019-03-08T19:59:29.435Z,24.20
2019-03-08T20:02:02.531Z,24.20
2019-03-08T20:04:38.815Z,24.20
2019-03-08T20:07:11.565Z,24.30
2019-03-08T20:09:53.692Z,24.20
2019-03-08T20:12:26.510Z,24.20
2019-03-08T20:15:12.669Z,24.20
2019-03-08T20:17:58.754Z,24.10
2019-03-08T20:20:37.501Z,24.10
2019-03-08T20:23:07.422Z,24.10
2019-03-08T20:25:40.526Z,24.00
2019-03-08T20:28:12.848Z,24.00
2019-03-08T20:30:51.874Z,24.00
2019-03-08T20:33:21.777Z,24.00
2019-03-08T20:35:54.470Z,24.00
2019-03-08T20:38:36.574Z,24.00
2019-03-08T20:41:09.459Z,24.00
2019-03-08T20:43:57.325Z,24.00
2019-03-08T20:46:27.234Z,24.00
2019-03-08T20:48:56.002Z,24.00
2019-03-08T20:51:24.283Z,24.00
2019-03-08T20:53:52.624Z,24.00
2019-03-08T20:56:21.155Z,24.00
2019-03-08T20:58:49.831Z,24.00
2019-03-08T21:01:18.102Z,24.00
2019-03-08T21:03:46.509Z,24.00
2019-03-08T21:06:15.094Z,24.00
2019-03-08T21:08:43.354Z,24.00
2019-03-08T21:11:11.956Z,24.00
2019-03-08T21:13:40.540Z,24.00
2019-03-08T21:16:09.715Z,24.00
2019-03-08T21:18:37.974Z,24.00
2019-03-08T21:21:06.234Z,24.00
2019-03-08T21:23:34.497Z,24.00
2019-03-08T21:26:02.830Z,24.00
2019-03-08T21:28:31.530Z,24.00
2019-03-08T21:30:59.828Z,24.00
2019-03-08T21:33:28.473Z,24.00
2019-03-08T21:35:57.089Z,24.00
2019-03-08T21:38:25.771Z,24.00
2019-03-08T21:40:54.064Z,24.00
2019-03-08T21:43:22.940Z,24.00
2019-03-08T21:45:51.336Z,24.00
2019-03-08T21:48:19.764Z,23.90
2019-03-08T21:50:48.020Z,24.00
2019-03-08T21:53:16.286Z,24.00
2019-03-08T21:55:44.549Z,23.90
2019-03-08T21:58:12.824Z,23.90
2019-03-08T22:00:41.073Z,23.90
2019-03-08T22:03:09.338Z,23.90
2019-03-08T22:05:39.240Z,23.90
2019-03-08T22:08:16.620Z,23.90
2019-03-08T22:10:57.329Z,23.90
2019-03-08T22:13:25.593Z,23.90
2019-03-08T22:15:53.861Z,23.90
2019-03-08T22:18:22.456Z,23.90
2019-03-08T22:20:51.184Z,24.00
2019-03-08T22:23:19.446Z,24.00
2019-03-08T22:25:47.714Z,24.00
2019-03-08T22:28:15.993Z,24.00
2019-03-08T22:30:44.241Z,24.00
2019-03-08T22:33:12.505Z,23.90
2019-03-08T22:35:40.756Z,23.90
2019-03-08T22:38:09.035Z,23.90
2019-03-08T22:40:37.303Z,23.90
2019-03-08T22:43:05.572Z,23.90
2019-03-08T22:45:34.241Z,23.90
2019-03-08T22:48:04.226Z,23.80
2019-03-08T22:50:32.498Z,23.80
2019-03-08T22:53:00.819Z,23.80
2019-03-08T22:55:29.089Z,23.80
2019-03-08T22:57:57.358Z,23.80
2019-03-08T23:00:35.970Z,23.80
2019-03-08T23:03:04.337Z,23.70
2019-03-08T23:05:32.666Z,23.70
2019-03-08T23:08:00.932Z,23.70
2019-03-08T23:10:29.268Z,23.70
2019-03-08T23:12:57.594Z,23.70
2019-03-08T23:15:25.868Z,23.70
2019-03-08T23:17:54.122Z,23.70
2019-03-08T23:20:22.390Z,23.70
2019-03-08T23:22:50.983Z,23.70
2019-03-08T23:25:19.593Z,23.60
2019-03-08T23:27:49.827Z,23.60
2019-03-08T23:30:19.737Z,23.60
2019-03-08T23:32:48.277Z,23.60
2019-03-08T23:35:16.550Z,23.60
2019-03-08T23:37:44.819Z,23.60
2019-03-08T23:40:13.462Z,23.50
2019-03-08T23:42:42.134Z,23.50
2019-03-08T23:45:10.482Z,23.60
2019-03-08T23:47:38.743Z,23.60
2019-03-08T23:50:08.932Z,23.60
2019-03-08T23:52:37.186Z,23.50
2019-03-08T23:55:09.147Z,23.50
2019-03-08T23:57:37.487Z,23.50
